sensor_id;sensor_type;location;lat;lon;timestamp;temperature;humidity
72905;DHT22;61048;52.162;4.516;2022-11-20T00:00:17;14.90;55.50
72905;DHT22;61048;52.162;4.516;2022-11-20T00:02:44;14.90;55.60
72905;DHT22;61048;52.162;4.516;2022-11-20T00:05:11;14.90;55.50
72905;DHT22;61048;52.162;4.516;2022-11-20T00:07:38;14.90;55.60
72905;DHT22;61048;52.162;4.516;2022-11-20T00:10:05;14.80;55.80
72905;DHT22;61048;52.162;4.516;2022-11-20T00:12:32;14.90;55.70
72905;DHT22;61048;52.162;4.516;2022-11-20T00:14:59;14.80;55.90
72905;DHT22;61048;52.162;4.516;2022-11-20T00:17:28;14.80;56.10
72905;DHT22;61048;52.162;4.516;2022-11-20T00:19:54;14.80;56.20
72905;DHT22;61048;52.162;4.516;2022-11-20T00:22:21;14.80;56.30
72905;DHT22;61048;52.162;4.516;2022-11-20T00:24:48;14.70;56.40
72905;DHT22;61048;52.162;4.516;2022-11-20T00:27:15;14.70;56.50
72905;DHT22;61048;52.162;4.516;2022-11-20T00:29:42;14.70;56.50
72905;DHT22;61048;52.162;4.516;2022-11-20T00:32:09;14.70;56.60
72905;DHT22;61048;52.162;4.516;2022-11-20T00:34:37;14.70;56.50
72905;DHT22;61048;52.162;4.516;2022-11-20T00:37:04;14.70;56.40
72905;DHT22;61048;52.162;4.516;2022-11-20T00:39:31;14.70;56.30
72905;DHT22;61048;52.162;4.516;2022-11-20T00:41:58;14.70;56.40
72905;DHT22;61048;52.162;4.516;2022-11-20T00:44:25;14.60;56.60
72905;DHT22;61048;52.162;4.516;2022-11-20T00:46:52;14.60;56.80
72905;DHT22;61048;52.162;4.516;2022-11-20T00:49:18;14.60;56.90
72905;DHT22;61048;52.162;4.516;2022-11-20T00:51:47;14.60;57.00
72905;DHT22;61048;52.162;4.516;2022-11-20T00:54:13;14.60;57.00
72905;DHT22;61048;52.162;4.516;2022-11-20T00:56:40;14.50;57.00
72905;DHT22;61048;52.162;4.516;2022-11-20T00:59:09;14.50;56.80
72905;DHT22;61048;52.162;4.516;2022-11-20T01:01:36;14.50;57.00
72905;DHT22;61048;52.162;4.516;2022-11-20T01:04:03;14.50;56.90
72905;DHT22;61048;52.162;4.516;2022-11-20T01:06:32;14.50;56.80
72905;DHT22;61048;52.162;4.516;2022-11-20T01:09:02;14.50;56.80
72905;DHT22;61048;52.162;4.516;2022-11-20T01:11:31;14.50;56.90
72905;DHT22;61048;52.162;4.516;2022-11-20T01:13:59;14.50;57.00
72905;DHT22;61048;52.162;4.516;2022-11-20T01:16:27;14.50;57.00
72905;DHT22;61048;52.162;4.516;2022-11-20T01:18:57;14.50;57.20
72905;DHT22;61048;52.162;4.516;2022-11-20T01:21:26;14.50;57.20
72905;DHT22;61048;52.162;4.516;2022-11-20T01:23:54;14.40;57.40
72905;DHT22;61048;52.162;4.516;2022-11-20T01:26:24;14.40;57.40
72905;DHT22;61048;52.162;4.516;2022-11-20T01:28:51;14.40;57.60
72905;DHT22;61048;52.162;4.516;2022-11-20T01:31:20;14.40;57.50
72905;DHT22;61048;52.162;4.516;2022-11-20T01:33:50;14.40;57.70
72905;DHT22;61048;52.162;4.516;2022-11-20T01:36:18;14.40;57.70
72905;DHT22;61048;52.162;4.516;2022-11-20T01:38:46;14.40;57.70
72905;DHT22;61048;52.162;4.516;2022-11-20T01:41:14;14.40;57.80
72905;DHT22;61048;52.162;4.516;2022-11-20T01:44:04;14.40;57.80
72905;DHT22;61048;52.162;4.516;2022-11-20T01:46:32;14.30;58.10
72905;DHT22;61048;52.162;4.516;2022-11-20T01:49:02;14.30;58.00
72905;DHT22;61048;52.162;4.516;2022-11-20T01:51:33;14.30;58.10
72905;DHT22;61048;52.162;4.516;2022-11-20T01:54:04;14.30;58.00
72905;DHT22;61048;52.162;4.516;2022-11-20T01:56:37;14.30;58.20
72905;DHT22;61048;52.162;4.516;2022-11-20T01:59:07;14.30;58.20
72905;DHT22;61048;52.162;4.516;2022-11-20T02:01:35;14.30;58.20
72905;DHT22;61048;52.162;4.516;2022-11-20T02:04:05;14.30;58.30
72905;DHT22;61048;52.162;4.516;2022-11-20T02:06:35;14.30;58.20
72905;DHT22;61048;52.162;4.516;2022-11-20T02:09:02;14.30;58.40
72905;DHT22;61048;52.162;4.516;2022-11-20T02:11:30;14.20;58.50
72905;DHT22;61048;52.162;4.516;2022-11-20T02:13:57;14.20;58.60
72905;DHT22;61048;52.162;4.516;2022-11-20T02:16:26;14.20;58.50
72905;DHT22;61048;52.162;4.516;2022-11-20T02:18:55;14.20;58.80
72905;DHT22;61048;52.162;4.516;2022-11-20T02:21:34;14.20;58.80
72905;DHT22;61048;52.162;4.516;2022-11-20T02:24:07;14.20;58.90
72905;DHT22;61048;52.162;4.516;2022-11-20T02:26:40;14.20;58.90
72905;DHT22;61048;52.162;4.516;2022-11-20T02:29:08;14.20;58.90
72905;DHT22;61048;52.162;4.516;2022-11-20T02:31:40;14.20;58.90
72905;DHT22;61048;52.162;4.516;2022-11-20T02:34:08;14.20;59.00
72905;DHT22;61048;52.162;4.516;2022-11-20T02:36:35;14.10;58.90
72905;DHT22;61048;52.162;4.516;2022-11-20T02:39:05;14.10;59.00
72905;DHT22;61048;52.162;4.516;2022-11-20T02:41:33;14.10;59.00
72905;DHT22;61048;52.162;4.516;2022-11-20T02:44:00;14.10;59.00
72905;DHT22;61048;52.162;4.516;2022-11-20T02:46:27;14.10;59.00
72905;DHT22;61048;52.162;4.516;2022-11-20T02:48:54;14.10;59.20
72905;DHT22;61048;52.162;4.516;2022-11-20T02:51:22;14.10;59.20
72905;DHT22;61048;52.162;4.516;2022-11-20T02:53:48;14.10;59.20
72905;DHT22;61048;52.162;4.516;2022-11-20T02:56:17;14.10;59.30
72905;DHT22;61048;52.162;4.516;2022-11-20T02:58:44;14.10;59.30
72905;DHT22;61048;52.162;4.516;2022-11-20T03:01:11;14.10;59.30
72905;DHT22;61048;52.162;4.516;2022-11-20T03:03:37;14.00;59.30
72905;DHT22;61048;52.162;4.516;2022-11-20T03:06:05;14.00;59.40
72905;DHT22;61048;52.162;4.516;2022-11-20T03:08:32;14.00;59.40
72905;DHT22;61048;52.162;4.516;2022-11-20T03:11:02;14.00;59.40
72905;DHT22;61048;52.162;4.516;2022-11-20T03:13:30;14.00;59.40
72905;DHT22;61048;52.162;4.516;2022-11-20T03:15:57;14.00;59.40
72905;DHT22;61048;52.162;4.516;2022-11-20T03:18:27;14.00;59.40
72905;DHT22;61048;52.162;4.516;2022-11-20T03:20:57;14.00;59.40
72905;DHT22;61048;52.162;4.516;2022-11-20T03:23:24;14.00;59.50
72905;DHT22;61048;52.162;4.516;2022-11-20T03:25:51;14.00;59.50
72905;DHT22;61048;52.162;4.516;2022-11-20T03:28:18;14.00;59.50
72905;DHT22;61048;52.162;4.516;2022-11-20T03:30:46;13.90;59.50
72905;DHT22;61048;52.162;4.516;2022-11-20T03:33:13;13.90;59.60
72905;DHT22;61048;52.162;4.516;2022-11-20T03:35:40;13.90;59.70
72905;DHT22;61048;52.162;4.516;2022-11-20T03:38:07;13.90;59.60
72905;DHT22;61048;52.162;4.516;2022-11-20T03:40:34;13.90;59.60
72905;DHT22;61048;52.162;4.516;2022-11-20T03:43:01;13.90;59.50
72905;DHT22;61048;52.162;4.516;2022-11-20T03:45:28;13.90;59.60
72905;DHT22;61048;52.162;4.516;2022-11-20T03:47:56;13.90;59.60
72905;DHT22;61048;52.162;4.516;2022-11-20T03:50:23;13.90;59.60
72905;DHT22;61048;52.162;4.516;2022-11-20T03:52:50;13.90;59.60
72905;DHT22;61048;52.162;4.516;2022-11-20T03:55:17;13.90;59.50
72905;DHT22;61048;52.162;4.516;2022-11-20T03:57:44;13.90;59.60
72905;DHT22;61048;52.162;4.516;2022-11-20T04:00:12;13.90;59.60
72905;DHT22;61048;52.162;4.516;2022-11-20T04:02:39;13.90;59.70
72905;DHT22;61048;52.162;4.516;2022-11-20T04:05:08;13.90;59.60
72905;DHT22;61048;52.162;4.516;2022-11-20T04:07:34;13.80;59.70
72905;DHT22;61048;52.162;4.516;2022-11-20T04:10:02;13.80;59.70
72905;DHT22;61048;52.162;4.516;2022-11-20T04:12:32;13.80;59.70
72905;DHT22;61048;52.162;4.516;2022-11-20T04:14:59;13.80;59.80
72905;DHT22;61048;52.162;4.516;2022-11-20T04:17:26;13.80;59.70
72905;DHT22;61048;52.162;4.516;2022-11-20T04:19:53;13.80;59.80
72905;DHT22;61048;52.162;4.516;2022-11-20T04:22:21;13.80;60.00
72905;DHT22;61048;52.162;4.516;2022-11-20T04:24:48;13.80;59.80
72905;DHT22;61048;52.162;4.516;2022-11-20T04:27:15;13.80;59.80
72905;DHT22;61048;52.162;4.516;2022-11-20T04:29:42;13.80;59.90
72905;DHT22;61048;52.162;4.516;2022-11-20T04:32:09;13.80;59.90
72905;DHT22;61048;52.162;4.516;2022-11-20T04:34:36;13.80;59.90
72905;DHT22;61048;52.162;4.516;2022-11-20T04:37:03;13.80;60.00
72905;DHT22;61048;52.162;4.516;2022-11-20T04:39:32;13.70;60.10
72905;DHT22;61048;52.162;4.516;2022-11-20T04:41:59;13.70;60.10
72905;DHT22;61048;52.162;4.516;2022-11-20T04:44:39;13.70;60.20
72905;DHT22;61048;52.162;4.516;2022-11-20T04:47:06;13.70;60.20
72905;DHT22;61048;52.162;4.516;2022-11-20T04:49:33;13.70;60.00
72905;DHT22;61048;52.162;4.516;2022-11-20T04:52:00;13.70;60.20
72905;DHT22;61048;52.162;4.516;2022-11-20T04:54:27;13.70;60.00
72905;DHT22;61048;52.162;4.516;2022-11-20T04:56:55;13.70;60.20
72905;DHT22;61048;52.162;4.516;2022-11-20T04:59:22;13.70;60.30
72905;DHT22;61048;52.162;4.516;2022-11-20T05:01:49;13.70;60.20
72905;DHT22;61048;52.162;4.516;2022-11-20T05:04:16;13.70;60.20
72905;DHT22;61048;52.162;4.516;2022-11-20T05:06:43;13.70;60.20
72905;DHT22;61048;52.162;4.516;2022-11-20T05:09:11;13.70;60.20
72905;DHT22;61048;52.162;4.516;2022-11-20T05:11:38;13.70;60.20
72905;DHT22;61048;52.162;4.516;2022-11-20T05:14:06;13.70;60.30
72905;DHT22;61048;52.162;4.516;2022-11-20T05:16:34;13.60;60.30
72905;DHT22;61048;52.162;4.516;2022-11-20T05:19:02;13.60;60.30
72905;DHT22;61048;52.162;4.516;2022-11-20T05:21:30;13.60;60.30
72905;DHT22;61048;52.162;4.516;2022-11-20T05:23:58;13.60;60.50
72905;DHT22;61048;52.162;4.516;2022-11-20T05:26:25;13.60;60.40
72905;DHT22;61048;52.162;4.516;2022-11-20T05:28:52;13.60;60.50
72905;DHT22;61048;52.162;4.516;2022-11-20T05:31:21;13.60;60.40
72905;DHT22;61048;52.162;4.516;2022-11-20T05:33:48;13.60;60.60
72905;DHT22;61048;52.162;4.516;2022-11-20T05:36:16;13.60;60.70
72905;DHT22;61048;52.162;4.516;2022-11-20T05:38:43;13.60;60.70
72905;DHT22;61048;52.162;4.516;2022-11-20T05:41:12;13.60;60.90
72905;DHT22;61048;52.162;4.516;2022-11-20T05:43:41;13.60;61.00
72905;DHT22;61048;52.162;4.516;2022-11-20T05:46:10;13.60;61.00
72905;DHT22;61048;52.162;4.516;2022-11-20T05:48:39;13.60;61.00
72905;DHT22;61048;52.162;4.516;2022-11-20T05:51:08;13.60;61.10
72905;DHT22;61048;52.162;4.516;2022-11-20T05:53:35;13.70;61.20
72905;DHT22;61048;52.162;4.516;2022-11-20T05:56:04;13.70;61.20
72905;DHT22;61048;52.162;4.516;2022-11-20T05:58:32;13.70;61.10
72905;DHT22;61048;52.162;4.516;2022-11-20T06:01:04;13.70;61.30
72905;DHT22;61048;52.162;4.516;2022-11-20T06:03:31;13.70;61.20
72905;DHT22;61048;52.162;4.516;2022-11-20T06:06:01;13.70;61.30
72905;DHT22;61048;52.162;4.516;2022-11-20T06:08:28;13.70;61.70
72905;DHT22;61048;52.162;4.516;2022-11-20T06:10:55;13.70;61.70
72905;DHT22;61048;52.162;4.516;2022-11-20T06:13:22;13.70;61.50
72905;DHT22;61048;52.162;4.516;2022-11-20T06:15:49;13.70;61.50
72905;DHT22;61048;52.162;4.516;2022-11-20T06:18:16;13.70;61.30
72905;DHT22;61048;52.162;4.516;2022-11-20T06:20:43;13.70;61.30
72905;DHT22;61048;52.162;4.516;2022-11-20T06:23:11;13.70;61.30
72905;DHT22;61048;52.162;4.516;2022-11-20T06:25:39;13.70;61.60
72905;DHT22;61048;52.162;4.516;2022-11-20T06:28:06;13.70;61.70
72905;DHT22;61048;52.162;4.516;2022-11-20T06:30:33;13.70;61.70
72905;DHT22;61048;52.162;4.516;2022-11-20T06:33:00;13.70;61.80
72905;DHT22;61048;52.162;4.516;2022-11-20T06:35:27;13.70;62.00
72905;DHT22;61048;52.162;4.516;2022-11-20T06:37:55;13.70;62.10
72905;DHT22;61048;52.162;4.516;2022-11-20T06:40:24;13.70;62.10
72905;DHT22;61048;52.162;4.516;2022-11-20T06:42:50;13.70;62.00
72905;DHT22;61048;52.162;4.516;2022-11-20T06:45:19;13.70;62.10
72905;DHT22;61048;52.162;4.516;2022-11-20T06:47:46;13.70;62.00
72905;DHT22;61048;52.162;4.516;2022-11-20T06:50:13;13.70;62.10
72905;DHT22;61048;52.162;4.516;2022-11-20T06:52:40;13.70;62.00
72905;DHT22;61048;52.162;4.516;2022-11-20T06:55:07;13.70;62.00
72905;DHT22;61048;52.162;4.516;2022-11-20T06:57:36;13.70;61.90
72905;DHT22;61048;52.162;4.516;2022-11-20T07:00:03;13.70;61.90
72905;DHT22;61048;52.162;4.516;2022-11-20T07:02:30;13.70;62.00
72905;DHT22;61048;52.162;4.516;2022-11-20T07:04:57;13.70;62.00
72905;DHT22;61048;52.162;4.516;2022-11-20T07:07:24;13.70;62.10
72905;DHT22;61048;52.162;4.516;2022-11-20T07:09:51;13.70;62.10
72905;DHT22;61048;52.162;4.516;2022-11-20T07:12:18;13.70;62.20
72905;DHT22;61048;52.162;4.516;2022-11-20T07:14:46;13.70;62.20
72905;DHT22;61048;52.162;4.516;2022-11-20T07:17:13;13.70;62.20
72905;DHT22;61048;52.162;4.516;2022-11-20T07:19:39;13.70;62.10
72905;DHT22;61048;52.162;4.516;2022-11-20T07:22:08;13.70;62.20
72905;DHT22;61048;52.162;4.516;2022-11-20T07:24:35;13.70;62.30
72905;DHT22;61048;52.162;4.516;2022-11-20T07:27:02;13.70;62.50
72905;DHT22;61048;52.162;4.516;2022-11-20T07:29:29;13.80;62.50
72905;DHT22;61048;52.162;4.516;2022-11-20T07:31:58;13.80;62.60
72905;DHT22;61048;52.162;4.516;2022-11-20T07:34:26;13.80;62.60
72905;DHT22;61048;52.162;4.516;2022-11-20T07:36:52;13.80;62.50
72905;DHT22;61048;52.162;4.516;2022-11-20T07:39:19;13.80;62.60
72905;DHT22;61048;52.162;4.516;2022-11-20T07:41:46;13.80;62.60
72905;DHT22;61048;52.162;4.516;2022-11-20T07:44:13;13.90;62.40
72905;DHT22;61048;52.162;4.516;2022-11-20T07:46:40;13.90;62.40
72905;DHT22;61048;52.162;4.516;2022-11-20T07:49:08;13.90;62.50
72905;DHT22;61048;52.162;4.516;2022-11-20T07:51:35;13.90;62.50
72905;DHT22;61048;52.162;4.516;2022-11-20T07:54:02;13.90;62.60
72905;DHT22;61048;52.162;4.516;2022-11-20T07:56:29;13.90;62.90
72905;DHT22;61048;52.162;4.516;2022-11-20T07:58:56;14.00;62.80
72905;DHT22;61048;52.162;4.516;2022-11-20T08:01:23;14.00;62.60
72905;DHT22;61048;52.162;4.516;2022-11-20T08:03:50;14.00;62.60
72905;DHT22;61048;52.162;4.516;2022-11-20T08:06:18;14.00;62.40
72905;DHT22;61048;52.162;4.516;2022-11-20T08:08:45;14.00;62.40
72905;DHT22;61048;52.162;4.516;2022-11-20T08:11:12;14.00;62.30
72905;DHT22;61048;52.162;4.516;2022-11-20T08:14:08;14.00;62.30
72905;DHT22;61048;52.162;4.516;2022-11-20T08:16:42;13.90;62.20
72905;DHT22;61048;52.162;4.516;2022-11-20T08:19:09;13.90;62.30
72905;DHT22;61048;52.162;4.516;2022-11-20T08:21:38;13.90;62.10
72905;DHT22;61048;52.162;4.516;2022-11-20T08:24:06;13.90;62.00
72905;DHT22;61048;52.162;4.516;2022-11-20T08:26:33;13.90;62.00
72905;DHT22;61048;52.162;4.516;2022-11-20T08:29:00;13.90;62.00
72905;DHT22;61048;52.162;4.516;2022-11-20T08:31:27;13.90;62.00
72905;DHT22;61048;52.162;4.516;2022-11-20T08:33:55;14.00;62.00
72905;DHT22;61048;52.162;4.516;2022-11-20T08:36:23;13.90;62.00
72905;DHT22;61048;52.162;4.516;2022-11-20T08:38:53;13.90;62.00
72905;DHT22;61048;52.162;4.516;2022-11-20T08:41:20;13.90;62.10
72905;DHT22;61048;52.162;4.516;2022-11-20T08:43:55;13.90;62.00
72905;DHT22;61048;52.162;4.516;2022-11-20T08:46:24;13.90;61.90
72905;DHT22;61048;52.162;4.516;2022-11-20T08:48:51;14.00;61.90
72905;DHT22;61048;52.162;4.516;2022-11-20T08:51:20;13.90;61.90
72905;DHT22;61048;52.162;4.516;2022-11-20T08:53:47;13.90;62.00
72905;DHT22;61048;52.162;4.516;2022-11-20T08:56:17;14.00;62.00
72905;DHT22;61048;52.162;4.516;2022-11-20T08:58:44;14.00;62.00
72905;DHT22;61048;52.162;4.516;2022-11-20T09:01:11;14.00;62.20
72905;DHT22;61048;52.162;4.516;2022-11-20T09:03:38;14.00;62.00
72905;DHT22;61048;52.162;4.516;2022-11-20T09:06:06;14.00;62.40
72905;DHT22;61048;52.162;4.516;2022-11-20T09:08:34;14.00;62.50
72905;DHT22;61048;52.162;4.516;2022-11-20T09:11:02;14.00;62.60
72905;DHT22;61048;52.162;4.516;2022-11-20T09:13:31;14.00;62.60
72905;DHT22;61048;52.162;4.516;2022-11-20T09:16:00;14.10;62.50
72905;DHT22;61048;52.162;4.516;2022-11-20T09:18:28;14.10;62.40
72905;DHT22;61048;52.162;4.516;2022-11-20T09:20:57;14.10;62.20
72905;DHT22;61048;52.162;4.516;2022-11-20T09:23:24;14.10;62.20
72905;DHT22;61048;52.162;4.516;2022-11-20T09:25:51;14.10;62.30
72905;DHT22;61048;52.162;4.516;2022-11-20T09:28:21;14.10;62.20
72905;DHT22;61048;52.162;4.516;2022-11-20T09:30:49;14.10;62.20
72905;DHT22;61048;52.162;4.516;2022-11-20T09:33:16;14.10;62.20
72905;DHT22;61048;52.162;4.516;2022-11-20T09:35:43;14.10;62.30
72905;DHT22;61048;52.162;4.516;2022-11-20T09:38:12;14.10;62.20
72905;DHT22;61048;52.162;4.516;2022-11-20T09:40:45;14.10;62.00
72905;DHT22;61048;52.162;4.516;2022-11-20T09:43:18;14.10;62.00
72905;DHT22;61048;52.162;4.516;2022-11-20T09:45:56;14.10;61.90
72905;DHT22;61048;52.162;4.516;2022-11-20T09:51:21;14.10;61.80
72905;DHT22;61048;52.162;4.516;2022-11-20T09:54:00;14.10;61.90
72905;DHT22;61048;52.162;4.516;2022-11-20T09:56:33;14.20;61.80
72905;DHT22;61048;52.162;4.516;2022-11-20T09:59:04;14.10;61.40
72905;DHT22;61048;52.162;4.516;2022-11-20T10:01:36;14.10;61.50
72905;DHT22;61048;52.162;4.516;2022-11-20T10:04:05;14.10;61.00
72905;DHT22;61048;52.162;4.516;2022-11-20T10:06:34;14.10;60.90
72905;DHT22;61048;52.162;4.516;2022-11-20T10:09:13;14.10;60.60
72905;DHT22;61048;52.162;4.516;2022-11-20T10:11:48;14.10;61.70
72905;DHT22;61048;52.162;4.516;2022-11-20T10:14:26;14.20;61.30
72905;DHT22;61048;52.162;4.516;2022-11-20T10:17:03;14.10;62.00
72905;DHT22;61048;52.162;4.516;2022-11-20T10:19:47;14.20;63.30
72905;DHT22;61048;52.162;4.516;2022-11-20T10:22:29;14.20;62.60
72905;DHT22;61048;52.162;4.516;2022-11-20T10:25:04;14.20;62.20
72905;DHT22;61048;52.162;4.516;2022-11-20T10:28:00;14.20;65.10
72905;DHT22;61048;52.162;4.516;2022-11-20T10:30:30;14.30;66.10
72905;DHT22;61048;52.162;4.516;2022-11-20T10:33:06;14.40;66.40
72905;DHT22;61048;52.162;4.516;2022-11-20T10:35:35;14.50;66.70
72905;DHT22;61048;52.162;4.516;2022-11-20T10:38:07;14.50;65.70
72905;DHT22;61048;52.162;4.516;2022-11-20T10:40:39;14.40;65.10
72905;DHT22;61048;52.162;4.516;2022-11-20T10:43:12;14.40;64.60
72905;DHT22;61048;52.162;4.516;2022-11-20T10:45:48;14.40;64.10
72905;DHT22;61048;52.162;4.516;2022-11-20T10:48:20;14.30;63.90
72905;DHT22;61048;52.162;4.516;2022-11-20T10:51:13;14.30;63.60
72905;DHT22;61048;52.162;4.516;2022-11-20T10:54:03;14.30;63.60
72905;DHT22;61048;52.162;4.516;2022-11-20T10:56:38;14.40;64.50
72905;DHT22;61048;52.162;4.516;2022-11-20T10:59:32;14.50;64.70
72905;DHT22;61048;52.162;4.516;2022-11-20T11:02:12;14.50;64.60
72905;DHT22;61048;52.162;4.516;2022-11-20T11:04:44;14.50;64.40
72905;DHT22;61048;52.162;4.516;2022-11-20T11:07:15;14.50;64.20
72905;DHT22;61048;52.162;4.516;2022-11-20T11:09:47;14.50;64.00
72905;DHT22;61048;52.162;4.516;2022-11-20T11:12:14;14.50;63.70
72905;DHT22;61048;52.162;4.516;2022-11-20T11:14:46;14.40;63.40
72905;DHT22;61048;52.162;4.516;2022-11-20T11:17:27;14.40;63.30
72905;DHT22;61048;52.162;4.516;2022-11-20T11:20:05;14.30;63.10
72905;DHT22;61048;52.162;4.516;2022-11-20T11:22:34;14.30;62.90
72905;DHT22;61048;52.162;4.516;2022-11-20T11:25:19;14.30;62.60
72905;DHT22;61048;52.162;4.516;2022-11-20T11:27:46;14.20;62.60
72905;DHT22;61048;52.162;4.516;2022-11-20T11:30:16;14.20;62.50
72905;DHT22;61048;52.162;4.516;2022-11-20T11:32:43;14.20;62.40
72905;DHT22;61048;52.162;4.516;2022-11-20T11:35:23;14.20;62.30
72905;DHT22;61048;52.162;4.516;2022-11-20T11:37:51;14.20;62.20
72905;DHT22;61048;52.162;4.516;2022-11-20T11:40:21;14.20;62.10
72905;DHT22;61048;52.162;4.516;2022-11-20T11:42:54;14.20;62.10
72905;DHT22;61048;52.162;4.516;2022-11-20T11:45:23;14.20;62.00
72905;DHT22;61048;52.162;4.516;2022-11-20T11:47:51;14.20;61.90
72905;DHT22;61048;52.162;4.516;2022-11-20T11:50:22;14.20;61.90
72905;DHT22;61048;52.162;4.516;2022-11-20T11:53:00;14.20;61.90
72905;DHT22;61048;52.162;4.516;2022-11-20T11:55:35;14.10;62.00
72905;DHT22;61048;52.162;4.516;2022-11-20T11:58:19;14.20;61.90
72905;DHT22;61048;52.162;4.516;2022-11-20T12:00:51;14.10;61.80
72905;DHT22;61048;52.162;4.516;2022-11-20T12:03:27;14.10;61.80
72905;DHT22;61048;52.162;4.516;2022-11-20T12:05:58;14.10;61.70
72905;DHT22;61048;52.162;4.516;2022-11-20T12:08:31;14.10;61.70
72905;DHT22;61048;52.162;4.516;2022-11-20T12:11:04;14.10;61.70
72905;DHT22;61048;52.162;4.516;2022-11-20T12:13:42;14.10;61.60
72905;DHT22;61048;52.162;4.516;2022-11-20T12:16:13;14.00;61.60
72905;DHT22;61048;52.162;4.516;2022-11-20T12:18:40;14.00;61.30
72905;DHT22;61048;52.162;4.516;2022-11-20T12:21:18;14.00;61.60
72905;DHT22;61048;52.162;4.516;2022-11-20T12:24:00;14.00;61.50
72905;DHT22;61048;52.162;4.516;2022-11-20T12:26:43;14.00;61.50
72905;DHT22;61048;52.162;4.516;2022-11-20T12:29:14;14.00;61.50
72905;DHT22;61048;52.162;4.516;2022-11-20T12:31:59;14.00;61.40
72905;DHT22;61048;52.162;4.516;2022-11-20T12:34:44;13.90;61.40
72905;DHT22;61048;52.162;4.516;2022-11-20T12:37:28;13.90;61.40
72905;DHT22;61048;52.162;4.516;2022-11-20T12:40:02;13.90;61.50
72905;DHT22;61048;52.162;4.516;2022-11-20T12:42:42;13.90;61.30
72905;DHT22;61048;52.162;4.516;2022-11-20T12:45:57;13.90;61.30
72905;DHT22;61048;52.162;4.516;2022-11-20T12:48:42;13.90;61.30
72905;DHT22;61048;52.162;4.516;2022-11-20T12:51:27;13.90;61.00
72905;DHT22;61048;52.162;4.516;2022-11-20T12:54:26;13.90;61.30
72905;DHT22;61048;52.162;4.516;2022-11-20T12:57:00;13.90;61.30
72905;DHT22;61048;52.162;4.516;2022-11-20T12:59:54;13.90;61.30
72905;DHT22;61048;52.162;4.516;2022-11-20T13:02:27;13.90;61.30
72905;DHT22;61048;52.162;4.516;2022-11-20T13:05:17;13.90;61.30
72905;DHT22;61048;52.162;4.516;2022-11-20T13:07:46;13.90;61.30
72905;DHT22;61048;52.162;4.516;2022-11-20T13:10:20;13.90;61.20
72905;DHT22;61048;52.162;4.516;2022-11-20T13:12:52;13.90;61.10
72905;DHT22;61048;52.162;4.516;2022-11-20T13:15:36;13.80;61.00
72905;DHT22;61048;52.162;4.516;2022-11-20T13:18:09;13.80;60.60
72905;DHT22;61048;52.162;4.516;2022-11-20T13:20:41;13.80;60.80
72905;DHT22;61048;52.162;4.516;2022-11-20T13:23:09;13.70;60.70
72905;DHT22;61048;52.162;4.516;2022-11-20T13:25:38;13.80;60.70
72905;DHT22;61048;52.162;4.516;2022-11-20T13:28:27;13.80;60.90
72905;DHT22;61048;52.162;4.516;2022-11-20T13:30:56;13.80;61.00
72905;DHT22;61048;52.162;4.516;2022-11-20T13:33:27;13.70;60.90
72905;DHT22;61048;52.162;4.516;2022-11-20T13:35:56;13.80;60.90
72905;DHT22;61048;52.162;4.516;2022-11-20T13:38:24;13.80;60.90
72905;DHT22;61048;52.162;4.516;2022-11-20T13:40:54;13.70;60.90
72905;DHT22;61048;52.162;4.516;2022-11-20T13:43:33;13.70;60.90
72905;DHT22;61048;52.162;4.516;2022-11-20T13:46:01;13.80;60.90
72905;DHT22;61048;52.162;4.516;2022-11-20T13:48:31;13.70;60.90
72905;DHT22;61048;52.162;4.516;2022-11-20T13:51:23;13.70;60.80
72905;DHT22;61048;52.162;4.516;2022-11-20T13:54:16;13.70;60.90
72905;DHT22;61048;52.162;4.516;2022-11-20T13:56:54;13.70;60.80
72905;DHT22;61048;52.162;4.516;2022-11-20T13:59:44;13.70;60.80
72905;DHT22;61048;52.162;4.516;2022-11-20T14:02:16;13.70;60.80
72905;DHT22;61048;52.162;4.516;2022-11-20T14:04:46;13.70;60.90
72905;DHT22;61048;52.162;4.516;2022-11-20T14:07:14;13.70;61.00
72905;DHT22;61048;52.162;4.516;2022-11-20T14:09:50;13.70;60.90
72905;DHT22;61048;52.162;4.516;2022-11-20T14:12:21;13.70;61.00
72905;DHT22;61048;52.162;4.516;2022-11-20T14:14:50;13.70;61.00
72905;DHT22;61048;52.162;4.516;2022-11-20T14:17:19;13.70;60.90
72905;DHT22;61048;52.162;4.516;2022-11-20T14:19:48;13.70;60.90
72905;DHT22;61048;52.162;4.516;2022-11-20T14:22:20;13.60;60.70
72905;DHT22;61048;52.162;4.516;2022-11-20T14:24:47;13.60;60.80
72905;DHT22;61048;52.162;4.516;2022-11-20T14:27:16;13.60;60.80
72905;DHT22;61048;52.162;4.516;2022-11-20T14:29:47;13.60;60.50
72905;DHT22;61048;52.162;4.516;2022-11-20T14:32:16;13.60;60.60
72905;DHT22;61048;52.162;4.516;2022-11-20T14:34:45;13.60;60.70
72905;DHT22;61048;52.162;4.516;2022-11-20T14:37:18;13.50;60.60
72905;DHT22;61048;52.162;4.516;2022-11-20T14:39:49;13.60;60.50
72905;DHT22;61048;52.162;4.516;2022-11-20T14:42:18;13.60;60.50
72905;DHT22;61048;52.162;4.516;2022-11-20T14:44:47;13.50;60.50
72905;DHT22;61048;52.162;4.516;2022-11-20T14:47:18;13.50;60.50
72905;DHT22;61048;52.162;4.516;2022-11-20T14:49:49;13.50;60.50
72905;DHT22;61048;52.162;4.516;2022-11-20T14:52:18;13.50;60.00
72905;DHT22;61048;52.162;4.516;2022-11-20T14:54:46;13.50;60.50
72905;DHT22;61048;52.162;4.516;2022-11-20T14:57:25;13.50;60.30
72905;DHT22;61048;52.162;4.516;2022-11-20T15:00:17;13.50;60.40
72905;DHT22;61048;52.162;4.516;2022-11-20T15:02:47;13.50;60.30
72905;DHT22;61048;52.162;4.516;2022-11-20T15:05:15;13.40;60.10
72905;DHT22;61048;52.162;4.516;2022-11-20T15:07:43;13.40;60.10
72905;DHT22;61048;52.162;4.516;2022-11-20T15:10:21;13.40;60.20
72905;DHT22;61048;52.162;4.516;2022-11-20T15:12:50;13.40;60.20
72905;DHT22;61048;52.162;4.516;2022-11-20T15:15:23;13.40;60.10
72905;DHT22;61048;52.162;4.516;2022-11-20T15:17:51;13.40;60.10
72905;DHT22;61048;52.162;4.516;2022-11-20T15:20:26;13.40;59.90
72905;DHT22;61048;52.162;4.516;2022-11-20T15:22:57;13.40;60.10
72905;DHT22;61048;52.162;4.516;2022-11-20T15:25:23;13.40;60.10
72905;DHT22;61048;52.162;4.516;2022-11-20T15:27:53;13.40;60.10
72905;DHT22;61048;52.162;4.516;2022-11-20T15:30:22;13.40;60.10
72905;DHT22;61048;52.162;4.516;2022-11-20T15:32:49;13.40;60.20
72905;DHT22;61048;52.162;4.516;2022-11-20T15:35:16;13.40;60.40
72905;DHT22;61048;52.162;4.516;2022-11-20T15:37:43;13.40;60.60
72905;DHT22;61048;52.162;4.516;2022-11-20T15:40:10;13.50;60.80
72905;DHT22;61048;52.162;4.516;2022-11-20T15:42:37;13.40;60.70
72905;DHT22;61048;52.162;4.516;2022-11-20T15:45:26;13.40;60.50
72905;DHT22;61048;52.162;4.516;2022-11-20T15:47:54;13.40;60.40
72905;DHT22;61048;52.162;4.516;2022-11-20T15:50:22;13.40;60.20
72905;DHT22;61048;52.162;4.516;2022-11-20T15:52:51;13.40;60.30